createdAt,value
2024-02-01T00:00:04.632Z,483.07
2024-02-01T00:00:15.802Z,482.89
2024-02-01T00:00:27.632Z,482.87
2024-02-01T00:00:39.499Z,482.96
2024-02-01T00:00:49.605Z,483.10
2024-02-01T00:01:01.658Z,483.12
2024-02-01T00:01:12.596Z,483.20
2024-02-01T00:01:23.594Z,483.24
2024-02-01T00:01:34.586Z,483.04
2024-02-01T00:01:45.560Z,483.22
2024-02-01T00:01:56.642Z,483.23
2024-02-01T00:02:08.594Z,483.06
2024-02-01T00:02:19.590Z,482.94
2024-02-01T00:02:30.628Z,482.76
2024-02-01T00:02:41.587Z,482.73
2024-02-01T00:02:52.613Z,482.72
2024-02-01T00:03:04.640Z,482.81
2024-02-01T00:03:15.761Z,482.70
2024-02-01T00:03:27.689Z,482.45
2024-02-01T00:03:39.601Z,482.51
2024-02-01T00:03:51.564Z,482.46
2024-02-01T00:04:02.639Z,482.48
2024-02-01T00:04:14.631Z,482.62
2024-02-01T00:04:26.627Z,482.63
2024-02-01T00:04:38.652Z,482.72
2024-02-01T00:04:49.622Z,482.79
2024-02-01T00:05:01.697Z,482.65
2024-02-01T00:05:12.681Z,482.62
2024-02-01T00:05:23.673Z,482.60
2024-02-01T00:05:35.734Z,482.53
2024-02-01T00:05:47.675Z,482.60
2024-02-01T00:05:58.661Z,482.56
2024-02-01T00:06:09.698Z,482.74
2024-02-01T00:06:21.701Z,483.05
2024-02-01T00:06:33.694Z,483.08
2024-02-01T00:06:45.735Z,483.20
2024-02-01T00:06:56.748Z,483.13
2024-02-01T00:07:07.684Z,483.37
2024-02-01T00:07:18.609Z,483.26
2024-02-01T00:07:30.620Z,483.43
2024-02-01T00:07:41.598Z,483.61
2024-02-01T00:07:52.599Z,483.52
2024-02-01T00:08:04.567Z,483.52
2024-02-01T00:08:15.594Z,483.58
2024-02-01T00:08:26.597Z,483.72
2024-02-01T00:08:37.709Z,483.73
2024-02-01T00:08:49.605Z,483.92
2024-02-01T00:09:01.581Z,483.70
2024-02-01T00:09:13.615Z,483.79
2024-02-01T00:09:25.598Z,483.80
2024-02-01T00:09:36.579Z,483.75
2024-02-01T00:09:47.575Z,483.78
2024-02-01T00:09:58.549Z,483.74
2024-02-01T00:10:09.564Z,483.99
2024-02-01T00:10:20.564Z,483.98
2024-02-01T00:10:31.548Z,484.11
2024-02-01T00:10:42.556Z,483.97
2024-02-01T00:10:53.534Z,483.92
2024-02-01T00:11:04.543Z,484.08
2024-02-01T00:11:15.622Z,484.20
2024-02-01T00:11:26.546Z,484.39
2024-02-01T00:11:37.558Z,484.44
2024-02-01T00:11:48.568Z,484.55
2024-02-01T00:11:59.642Z,484.66
2024-02-01T00:12:10.606Z,484.86
2024-02-01T00:12:22.556Z,484.87
2024-02-01T00:12:33.533Z,484.65
2024-02-01T00:12:44.628Z,484.57
2024-02-01T00:12:56.565Z,484.67
2024-02-01T00:13:07.545Z,485.03
2024-02-01T00:13:18.528Z,485.25
2024-02-01T00:13:29.610Z,485.33
2024-02-01T00:13:40.583Z,485.26
2024-02-01T00:13:51.560Z,485.32
2024-02-01T00:14:02.554Z,485.24
2024-02-01T00:14:13.540Z,485.21
2024-02-01T00:14:24.527Z,485.32
2024-02-01T00:14:35.549Z,485.37
2024-02-01T00:14:46.601Z,485.34
2024-02-01T00:14:58.578Z,485.45
2024-02-01T00:15:09.628Z,485.47
2024-02-01T00:15:20.669Z,485.60
2024-02-01T00:15:31.576Z,485.73
2024-02-01T00:15:42.573Z,485.61
2024-02-01T00:15:53.552Z,485.70
2024-02-01T00:16:04.624Z,485.45
2024-02-01T00:16:16.594Z,485.53
2024-02-01T00:16:27.607Z,485.73
2024-02-01T00:16:39.568Z,485.67
2024-02-01T00:16:50.571Z,485.38
2024-02-01T00:17:01.571Z,485.53
2024-02-01T00:17:12.563Z,485.57
2024-02-01T00:17:23.562Z,485.56
2024-02-01T00:17:34.631Z,485.64
2024-02-01T00:17:45.672Z,485.69
2024-02-01T00:17:56.634Z,485.77
2024-02-01T00:18:07.632Z,485.84
2024-02-01T00:18:18.619Z,485.87
2024-02-01T00:18:29.610Z,485.84
2024-02-01T00:18:40.758Z,485.75
2024-02-01T00:18:52.808Z,485.93
2024-02-01T00:19:04.769Z,486.11
2024-02-01T00:19:15.670Z,485.96
2024-02-01T00:19:26.666Z,486.04
2024-02-01T00:19:37.658Z,486.02
2024-02-01T00:19:48.583Z,486.39
2024-02-01T00:19:59.607Z,486.00
2024-02-01T00:20:11.605Z,485.99
2024-02-01T00:20:22.582Z,486.18
2024-02-01T00:20:33.646Z,486.12
2024-02-01T00:20:44.588Z,486.01
2024-02-01T00:20:55.606Z,486.39
2024-02-01T00:21:07.574Z,486.48
2024-02-01T00:21:18.684Z,486.57
2024-02-01T00:21:30.559Z,486.26
2024-02-01T00:21:41.533Z,486.26
2024-02-01T00:21:52.604Z,486.25
2024-02-01T00:22:03.590Z,486.34
2024-02-01T00:22:23.298Z,486.27
2024-02-01T00:22:33.354Z,486.57
2024-02-01T00:22:38.605Z,486.15
2024-02-01T00:22:49.600Z,486.13
2024-02-01T00:23:01.569Z,486.36
2024-02-01T00:23:12.560Z,486.50
2024-02-01T00:23:23.550Z,486.47
2024-02-01T00:23:34.640Z,486.55
2024-02-01T00:23:45.746Z,486.70
2024-02-01T00:23:56.615Z,486.62
2024-02-01T00:24:07.674Z,486.51
2024-02-01T00:24:19.612Z,486.71
2024-02-01T00:24:30.527Z,486.81
2024-02-01T00:24:41.610Z,486.77
2024-02-01T00:24:53.564Z,486.77
2024-02-01T00:25:04.534Z,486.84
2024-02-01T00:25:15.603Z,486.87
2024-02-01T00:25:27.551Z,486.78
2024-02-01T00:25:38.625Z,486.74
2024-02-01T00:25:50.577Z,486.63
2024-02-01T00:26:01.552Z,486.43
2024-02-01T00:26:12.570Z,486.89
2024-02-01T00:26:23.560Z,486.83
2024-02-01T00:26:34.594Z,486.70
2024-02-01T00:26:46.583Z,486.60
2024-02-01T00:26:58.654Z,486.93
2024-02-01T00:27:09.624Z,486.92
2024-02-01T00:27:20.587Z,486.93
2024-02-01T00:27:32.553Z,486.88
2024-02-01T00:27:43.535Z,486.79
2024-02-01T00:27:54.524Z,486.80
2024-02-01T00:28:05.602Z,486.88
2024-02-01T00:28:16.586Z,486.74
2024-02-01T00:28:27.577Z,486.59
2024-02-01T00:28:38.609Z,486.82
2024-02-01T00:28:50.584Z,486.69
2024-02-01T00:29:02.575Z,486.61
2024-02-01T00:29:13.565Z,486.55
2024-02-01T00:29:24.541Z,486.73
2024-02-01T00:29:35.543Z,486.82
2024-02-01T00:29:46.616Z,486.93
2024-02-01T00:29:57.634Z,487.01
2024-02-01T00:30:08.641Z,487.14
2024-02-01T00:30:19.610Z,487.50
2024-02-01T00:30:30.557Z,487.59
2024-02-01T00:30:41.531Z,487.47
2024-02-01T00:30:52.607Z,487.56
2024-02-01T00:31:03.587Z,487.83
2024-02-01T00:31:14.563Z,487.66
2024-02-01T00:31:26.624Z,487.59
2024-02-01T00:31:37.611Z,487.71
2024-02-01T00:31:49.570Z,487.76
2024-02-01T00:32:00.597Z,487.96
2024-02-01T00:32:12.558Z,488.37
2024-02-01T00:32:23.681Z,488.33
2024-02-01T00:32:34.608Z,488.37
2024-02-01T00:32:46.667Z,488.47
2024-02-01T00:32:58.782Z,488.33
2024-02-01T00:33:09.718Z,488.12
2024-02-01T00:33:20.643Z,488.37
2024-02-01T00:33:32.755Z,488.53
2024-02-01T00:33:43.714Z,488.50
2024-02-01T00:33:54.792Z,488.47
2024-02-01T00:34:05.691Z,488.40
2024-02-01T00:34:17.707Z,488.48
2024-02-01T00:34:29.607Z,488.22
2024-02-01T00:34:41.618Z,488.14
2024-02-01T00:34:52.606Z,488.09
2024-02-01T00:35:04.571Z,488.22
2024-02-01T00:35:15.617Z,488.24
2024-02-01T00:35:27.549Z,488.21
2024-02-01T00:35:39.473Z,488.34
2024-02-01T00:35:49.640Z,488.52
2024-02-01T00:36:01.613Z,488.48
2024-02-01T00:36:12.576Z,488.51
2024-02-01T00:36:23.577Z,488.54
2024-02-01T00:36:34.558Z,488.50
2024-02-01T00:36:45.540Z,488.75
2024-02-01T00:36:56.620Z,488.75
2024-02-01T00:37:08.553Z,488.80
2024-02-01T00:37:19.533Z,488.75
2024-02-01T00:37:30.575Z,488.68
2024-02-01T00:37:41.572Z,488.84
2024-02-01T00:37:52.560Z,488.87
2024-02-01T00:38:03.557Z,488.52
2024-02-01T00:38:14.531Z,488.80
2024-02-01T00:38:25.608Z,489.11
2024-02-01T00:38:36.632Z,489.13
2024-02-01T00:38:47.569Z,489.17
2024-02-01T00:38:58.624Z,489.31
2024-02-01T00:39:10.689Z,488.96
2024-02-01T00:39:22.612Z,489.39
2024-02-01T00:39:33.581Z,489.28
2024-02-01T00:39:44.572Z,489.24
2024-02-01T00:39:55.580Z,489.22
2024-02-01T00:40:06.559Z,489.23
2024-02-01T00:40:17.563Z,489.31
2024-02-01T00:40:28.554Z,489.22
2024-02-01T00:40:39.538Z,489.36
2024-02-01T00:40:50.621Z,489.38
2024-02-01T00:41:02.591Z,489.34
2024-02-01T00:41:13.576Z,489.52
2024-02-01T00:41:24.607Z,489.43
2024-02-01T00:41:36.693Z,489.59
2024-02-01T00:41:47.649Z,489.91
2024-02-01T00:41:58.634Z,489.65
2024-02-01T00:42:09.681Z,489.74
2024-02-01T00:42:20.620Z,489.93
2024-02-01T00:42:31.615Z,490.20
2024-02-01T00:42:42.670Z,490.10
2024-02-01T00:42:53.666Z,489.98
2024-02-01T00:43:05.616Z,489.86
2024-02-01T00:43:16.589Z,489.94
2024-02-01T00:43:27.599Z,490.02
2024-02-01T00:43:39.583Z,489.92
2024-02-01T00:43:50.573Z,490.07
2024-02-01T00:44:01.549Z,490.18
2024-02-01T00:44:12.620Z,490.26
2024-02-01T00:44:24.576Z,490.10
2024-02-01T00:44:35.592Z,490.42
2024-02-01T00:44:46.582Z,490.29
2024-02-01T00:44:58.649Z,490.32
2024-02-01T00:45:10.657Z,490.50
2024-02-01T00:45:22.639Z,490.58
2024-02-01T00:45:33.565Z,490.40
2024-02-01T00:45:44.548Z,489.98
2024-02-01T00:45:55.530Z,490.30
2024-02-01T00:46:06.628Z,490.32
2024-02-01T00:46:18.592Z,490.28
2024-02-01T00:46:29.576Z,490.05
2024-02-01T00:46:40.550Z,489.95
2024-02-01T00:46:52.569Z,490.21
2024-02-01T00:47:03.584Z,490.11
2024-02-01T00:47:14.580Z,490.33
2024-02-01T00:47:26.645Z,490.42
2024-02-01T00:47:38.653Z,490.54
2024-02-01T00:47:49.793Z,490.84
2024-02-01T00:48:00.669Z,490.91
2024-02-01T00:48:11.670Z,490.85
2024-02-01T00:48:22.726Z,491.19
2024-02-01T00:48:33.673Z,491.19
2024-02-01T00:48:45.713Z,491.17
2024-02-01T00:48:57.689Z,490.60
2024-02-01T00:49:09.841Z,490.80
2024-02-01T00:49:21.683Z,490.74
2024-02-01T00:49:32.860Z,490.66
2024-02-01T00:49:43.635Z,490.45
2024-02-01T00:49:55.551Z,490.81
2024-02-01T00:50:06.516Z,490.91
2024-02-01T00:50:17.609Z,490.89
2024-02-01T00:50:28.582Z,490.59
2024-02-01T00:50:40.604Z,490.60
2024-02-01T00:50:51.625Z,490.49
2024-02-01T00:51:02.669Z,490.28
2024-02-01T00:51:13.630Z,490.30
2024-02-01T00:51:24.565Z,490.39
2024-02-01T00:51:35.584Z,490.37
2024-02-01T00:51:47.555Z,490.25
2024-02-01T00:51:58.534Z,490.20
2024-02-01T00:52:11.049Z,490.30
2024-02-01T00:52:21.531Z,490.34
2024-02-01T00:52:32.613Z,490.07
2024-02-01T00:52:44.580Z,490.05
2024-02-01T00:52:56.616Z,489.86
2024-02-01T00:53:08.581Z,490.01
2024-02-01T00:53:19.559Z,489.89
2024-02-01T00:53:30.550Z,489.97
2024-02-01T00:53:41.583Z,489.94
2024-02-01T00:53:52.628Z,489.90
2024-02-01T00:54:03.589Z,490.07
2024-02-01T00:54:15.628Z,489.76
2024-02-01T00:54:26.562Z,490.05
2024-02-01T00:54:37.532Z,490.08
2024-02-01T00:54:48.626Z,490.06
2024-02-01T00:55:00.663Z,489.98
2024-02-01T00:55:11.571Z,490.26
2024-02-01T00:55:22.575Z,490.03
2024-02-01T00:55:33.577Z,490.13
2024-02-01T00:55:44.563Z,490.41
2024-02-01T00:55:55.562Z,490.31
2024-02-01T00:56:06.588Z,489.87
2024-02-01T00:56:17.573Z,489.96
2024-02-01T00:56:28.552Z,489.89
2024-02-01T00:56:39.568Z,489.51
2024-02-01T00:56:50.633Z,489.61
2024-02-01T00:57:01.604Z,489.50
2024-02-01T00:57:12.755Z,489.45
2024-02-01T00:57:23.565Z,489.40
2024-02-01T00:57:34.562Z,489.39
2024-02-01T00:57:45.560Z,489.42
2024-02-01T00:57:56.539Z,489.57
2024-02-01T00:58:07.610Z,489.33
2024-02-01T00:58:19.559Z,489.22
2024-02-01T00:58:30.554Z,489.17
2024-02-01T00:58:41.535Z,489.27
2024-02-01T00:58:52.620Z,489.44
2024-02-01T00:59:04.583Z,489.40
2024-02-01T00:59:15.664Z,489.71
2024-02-01T00:59:26.568Z,489.90
2024-02-01T00:59:37.650Z,489.85
2024-02-01T00:59:48.645Z,489.98
2024-02-01T01:00:00.687Z,489.83
2024-02-01T01:00:11.610Z,489.80
2024-02-01T01:00:22.644Z,489.73
2024-02-01T01:00:33.621Z,489.53
2024-02-01T01:00:44.747Z,489.60
2024-02-01T01:00:56.856Z,489.72
2024-02-01T01:01:08.694Z,489.81
2024-02-01T01:01:19.724Z,489.65
2024-02-01T01:01:30.728Z,489.84
2024-02-01T01:01:41.638Z,490.03
2024-02-01T01:01:52.612Z,489.82
2024-02-01T01:02:03.691Z,489.68
2024-02-01T01:02:14.605Z,489.45
2024-02-01T01:02:25.582Z,489.89
2024-02-01T01:02:36.617Z,489.70
2024-02-01T01:02:48.616Z,489.68
2024-02-01T01:03:00.651Z,489.61
2024-02-01T01:03:12.616Z,489.70
2024-02-01T01:03:23.658Z,489.88
2024-02-01T01:03:35.611Z,489.62
2024-02-01T01:03:47.577Z,489.57
2024-02-01T01:03:58.570Z,490.12
2024-02-01T01:04:09.588Z,490.05
2024-02-01T01:04:20.597Z,489.72
2024-02-01T01:04:32.592Z,489.41
2024-02-01T01:04:43.626Z,489.10
2024-02-01T01:04:54.574Z,489.34
2024-02-01T01:05:05.623Z,489.41
2024-02-01T01:05:17.582Z,489.55
2024-02-01T01:05:28.580Z,489.31
2024-02-01T01:05:39.612Z,489.09
2024-02-01T01:05:50.596Z,489.09
2024-02-01T01:06:02.660Z,489.08
2024-02-01T01:06:13.618Z,489.18
2024-02-01T01:06:25.582Z,489.12
2024-02-01T01:06:36.563Z,489.27
2024-02-01T01:06:48.564Z,489.15
2024-02-01T01:06:59.550Z,489.03
2024-02-01T01:07:10.529Z,489.04
2024-02-01T01:07:21.608Z,489.06
2024-02-01T01:07:33.654Z,489.03
2024-02-01T01:07:44.624Z,489.01
2024-02-01T01:07:55.600Z,489.05
2024-02-01T01:08:07.639Z,489.07
2024-02-01T01:08:18.641Z,489.14
2024-02-01T01:08:30.612Z,489.18
2024-02-01T01:08:41.576Z,488.99
2024-02-01T01:08:52.586Z,488.89
2024-02-01T01:09:04.599Z,489.31
2024-02-01T01:09:16.612Z,489.28
2024-02-01T01:09:27.533Z,489.29
2024-02-01T01:09:38.617Z,489.24
2024-02-01T01:09:50.529Z,489.18
2024-02-01T01:10:01.617Z,489.19
2024-02-01T01:10:13.606Z,489.29
2024-02-01T01:10:25.568Z,489.26
2024-02-01T01:10:36.564Z,489.21
2024-02-01T01:10:47.560Z,489.24
2024-02-01T01:10:58.558Z,489.35
2024-02-01T01:11:09.554Z,489.45
2024-02-01T01:11:20.578Z,489.48
2024-02-01T01:11:31.647Z,489.44
2024-02-01T01:11:43.630Z,489.46
2024-02-01T01:11:55.618Z,489.49
2024-02-01T01:12:07.661Z,489.54
2024-02-01T01:12:18.553Z,489.67
2024-02-01T01:12:29.589Z,489.86
2024-02-01T01:12:41.552Z,489.99
2024-02-01T01:12:52.620Z,489.90
2024-02-01T01:13:04.566Z,489.78
2024-02-01T01:13:15.608Z,489.61
2024-02-01T01:13:27.556Z,489.73
2024-02-01T01:13:38.541Z,489.89
2024-02-01T01:13:49.621Z,489.96
2024-02-01T01:14:01.596Z,489.66
2024-02-01T01:14:13.547Z,489.98
2024-02-01T01:14:24.559Z,489.91
2024-02-01T01:14:35.570Z,490.12
2024-02-01T01:14:46.606Z,489.81
2024-02-01T01:14:58.584Z,490.09
2024-02-01T01:15:10.735Z,489.92
2024-02-01T01:15:22.628Z,489.86
2024-02-01T01:15:33.608Z,489.76
2024-02-01T01:15:45.576Z,489.80
2024-02-01T01:15:57.595Z,489.94
2024-02-01T01:16:08.581Z,489.95
2024-02-01T01:16:19.603Z,489.91
2024-02-01T01:16:30.580Z,489.97
2024-02-01T01:16:41.546Z,489.99
2024-02-01T01:16:52.520Z,489.89
2024-02-01T01:17:03.616Z,490.01
2024-02-01T01:17:15.569Z,490.03
2024-02-01T01:17:26.538Z,489.96
2024-02-01T01:17:37.680Z,489.94
2024-02-01T01:17:49.615Z,489.99
2024-02-01T01:18:00.702Z,490.01
2024-02-01T01:18:11.684Z,489.87
2024-02-01T01:18:23.748Z,489.88
2024-02-01T01:18:35.635Z,489.83
2024-02-01T01:18:46.706Z,489.91
2024-02-01T01:18:57.770Z,489.84
2024-02-01T01:19:09.775Z,489.85
2024-02-01T01:19:21.686Z,489.67
2024-02-01T01:19:33.620Z,489.82
2024-02-01T01:19:45.714Z,489.79
2024-02-01T01:19:56.751Z,489.67
2024-02-01T01:20:08.564Z,489.72
2024-02-01T01:20:19.901Z,489.65
2024-02-01T01:20:30.576Z,489.58
2024-02-01T01:20:42.596Z,489.42
2024-02-01T01:20:53.600Z,489.60
2024-02-01T01:21:04.624Z,489.91
2024-02-01T01:21:16.666Z,489.85
2024-02-01T01:21:28.591Z,490.02
2024-02-01T01:21:40.563Z,489.95
2024-02-01T01:21:51.550Z,489.86
2024-02-01T01:22:02.607Z,489.74
2024-02-01T01:22:14.562Z,489.77
2024-02-01T01:22:25.575Z,489.74
2024-02-01T01:22:36.576Z,489.78
2024-02-01T01:22:47.548Z,489.77
2024-02-01T01:22:58.570Z,489.62
2024-02-01T01:23:09.574Z,489.49
2024-02-01T01:23:20.567Z,489.40
2024-02-01T01:23:31.714Z,489.24
2024-02-01T01:23:43.610Z,489.67
2024-02-01T01:23:55.699Z,489.64
2024-02-01T01:24:07.618Z,489.60
2024-02-01T01:24:18.596Z,489.48
2024-02-01T01:24:30.598Z,489.47
2024-02-01T01:24:42.560Z,489.36
2024-02-01T01:24:54.558Z,489.61
2024-02-01T01:25:06.573Z,489.77
2024-02-01T01:25:17.569Z,489.85
2024-02-01T01:25:28.548Z,489.90
2024-02-01T01:25:39.548Z,489.88
2024-02-01T01:25:50.539Z,490.03
2024-02-01T01:26:01.545Z,490.18
2024-02-01T01:26:12.533Z,490.23
2024-02-01T01:26:23.552Z,490.17
2024-02-01T01:26:34.566Z,490.26
2024-02-01T01:26:45.607Z,490.22
2024-02-01T01:26:56.647Z,490.11
2024-02-01T01:27:08.680Z,490.21
2024-02-01T01:27:20.632Z,490.01
2024-02-01T01:27:32.621Z,490.29
2024-02-01T01:27:44.735Z,490.55
2024-02-01T01:27:56.585Z,490.57
2024-02-01T01:28:07.575Z,490.51
2024-02-01T01:28:18.552Z,490.43
2024-02-01T01:28:29.551Z,490.39
2024-02-01T01:28:40.544Z,490.39
2024-02-01T01:28:51.529Z,490.43
2024-02-01T01:29:02.620Z,490.52
2024-02-01T01:29:14.577Z,490.46
2024-02-01T01:29:25.580Z,490.40
2024-02-01T01:29:36.600Z,490.26
2024-02-01T01:29:47.642Z,490.32
2024-02-01T01:29:58.636Z,490.35
2024-02-01T01:30:09.745Z,490.41
2024-02-01T01:30:20.624Z,490.25
2024-02-01T01:30:31.617Z,490.39
2024-02-01T01:30:43.574Z,490.50
2024-02-01T01:30:55.548Z,490.28
2024-02-01T01:31:06.546Z,490.37
2024-02-01T01:31:17.561Z,490.48
2024-02-01T01:31:28.545Z,490.36
2024-02-01T01:31:39.571Z,490.30
2024-02-01T01:31:50.558Z,490.26
2024-02-01T01:32:01.552Z,490.29
2024-02-01T01:32:12.536Z,490.16
2024-02-01T01:32:23.617Z,490.10
2024-02-01T01:32:35.620Z,490.13
2024-02-01T01:32:46.656Z,489.86
2024-02-01T01:32:58.703Z,489.80
2024-02-01T01:33:09.599Z,490.08
2024-02-01T01:33:20.682Z,490.06
2024-02-01T01:33:32.613Z,490.05
2024-02-01T01:33:44.644Z,490.27
2024-02-01T01:33:55.929Z,490.33
2024-02-01T01:34:07.638Z,490.30
2024-02-01T01:34:19.600Z,490.10
2024-02-01T01:34:31.588Z,490.29
2024-02-01T01:34:43.637Z,490.32
2024-02-01T01:34:54.626Z,490.39
2024-02-01T01:35:06.692Z,490.34
2024-02-01T01:35:18.575Z,490.28
2024-02-01T01:35:29.675Z,490.27
2024-02-01T01:35:40.579Z,490.18
2024-02-01T01:35:51.636Z,490.30
2024-02-01T01:36:02.640Z,490.36
2024-02-01T01:36:13.755Z,490.32
2024-02-01T01:36:25.585Z,490.39
2024-02-01T01:36:36.568Z,490.47
2024-02-01T01:36:47.556Z,490.54
2024-02-01T01:36:58.573Z,490.62
2024-02-01T01:37:09.561Z,490.77
2024-02-01T01:37:20.539Z,490.59
2024-02-01T01:37:31.533Z,490.60
2024-02-01T01:37:42.605Z,490.48
2024-02-01T01:37:53.584Z,490.60
2024-02-01T01:38:04.588Z,490.52
2024-02-01T01:38:15.607Z,490.54
2024-02-01T01:38:27.558Z,490.25
2024-02-01T01:38:38.594Z,490.46
2024-02-01T01:38:50.569Z,490.45
2024-02-01T01:39:01.677Z,490.35
2024-02-01T01:39:12.690Z,490.39
2024-02-01T01:39:24.564Z,490.54
2024-02-01T01:39:35.550Z,490.50
2024-02-01T01:39:46.534Z,490.37
2024-02-01T01:39:57.525Z,490.46
2024-02-01T01:40:08.621Z,490.55
2024-02-01T01:40:20.584Z,490.56
2024-02-01T01:40:31.572Z,490.54
2024-02-01T01:40:42.570Z,490.37
2024-02-01T01:40:53.561Z,490.47
2024-02-01T01:41:04.563Z,490.43
2024-02-01T01:41:15.539Z,490.48
2024-02-01T01:41:26.564Z,490.47
2024-02-01T01:41:37.560Z,490.45
2024-02-01T01:41:48.559Z,490.32
2024-02-01T01:41:59.650Z,490.41
2024-02-01T01:42:11.636Z,490.41
2024-02-01T01:42:23.571Z,490.39
2024-02-01T01:42:34.556Z,490.35
2024-02-01T01:42:45.553Z,490.44
2024-02-01T01:42:56.540Z,490.39
2024-02-01T01:43:07.620Z,490.33
2024-02-01T01:43:19.567Z,490.40
2024-02-01T01:43:30.548Z,490.45
2024-02-01T01:43:41.561Z,490.38
2024-02-01T01:43:52.569Z,490.38
2024-02-01T01:44:03.553Z,490.22
2024-02-01T01:44:14.538Z,490.16
2024-02-01T01:44:25.549Z,490.15
2024-02-01T01:44:36.563Z,490.01
2024-02-01T01:44:47.588Z,490.06
2024-02-01T01:44:59.586Z,490.23
2024-02-01T01:45:11.637Z,490.20
2024-02-01T01:45:22.600Z,490.03
2024-02-01T01:45:34.569Z,490.10
2024-02-01T01:45:45.553Z,490.14
2024-02-01T01:45:56.535Z,490.14
2024-02-01T01:46:07.528Z,490.11
2024-02-01T01:46:18.646Z,490.25
2024-02-01T01:46:30.596Z,490.33
2024-02-01T01:46:42.553Z,490.56
2024-02-01T01:46:53.523Z,490.42
2024-02-01T01:47:04.607Z,490.31
2024-02-01T01:47:16.558Z,490.24
2024-02-01T01:47:27.549Z,490.20
2024-02-01T01:47:38.642Z,490.27
2024-02-01T01:47:49.687Z,490.31
2024-02-01T01:48:01.669Z,490.37
2024-02-01T01:48:13.638Z,490.28
2024-02-01T01:48:24.608Z,490.23
2024-02-01T01:48:35.708Z,490.21
2024-02-01T01:48:46.623Z,490.20
2024-02-01T01:48:57.708Z,490.10
2024-02-01T01:49:08.973Z,490.10
2024-02-01T01:49:20.605Z,490.06
2024-02-01T01:49:32.635Z,489.99
2024-02-01T01:49:43.578Z,490.02
2024-02-01T01:49:55.621Z,489.99
2024-02-01T01:50:06.589Z,489.95
2024-02-01T01:50:17.558Z,489.89
2024-02-01T01:50:28.559Z,490.13
2024-02-01T01:50:39.608Z,490.07
2024-02-01T01:50:51.580Z,490.05
2024-02-01T01:51:03.702Z,490.24
2024-02-01T01:51:15.588Z,490.28
2024-02-01T01:51:26.559Z,490.30
2024-02-01T01:51:37.601Z,490.32
2024-02-01T01:51:49.551Z,490.27
2024-02-01T01:52:00.545Z,490.33
2024-02-01T01:52:11.640Z,490.39
2024-02-01T01:52:23.622Z,490.35
2024-02-01T01:52:35.583Z,490.22
2024-02-01T01:52:47.553Z,490.32
2024-02-01T01:52:58.535Z,490.21
2024-02-01T01:53:09.528Z,490.09
2024-02-01T01:53:20.605Z,490.00
2024-02-01T01:53:31.610Z,489.92
2024-02-01T01:53:43.611Z,489.85
2024-02-01T01:53:55.598Z,489.79
2024-02-01T01:54:07.589Z,489.86
2024-02-01T01:54:19.578Z,489.86
2024-02-01T01:54:30.581Z,489.90
2024-02-01T01:54:41.581Z,489.74
2024-02-01T01:54:52.560Z,489.65
2024-02-01T01:55:03.561Z,489.72
2024-02-01T01:55:14.558Z,489.66
2024-02-01T01:55:25.533Z,489.60
2024-02-01T01:55:36.606Z,489.65
2024-02-01T01:55:48.549Z,489.61
2024-02-01T01:55:59.537Z,489.56
2024-02-01T01:56:10.523Z,489.60
2024-02-01T01:56:21.608Z,489.72
2024-02-01T01:56:33.612Z,489.70
2024-02-01T01:56:44.571Z,489.69
2024-02-01T01:56:55.645Z,489.56
2024-02-01T01:57:06.594Z,489.55
2024-02-01T01:57:18.599Z,489.51
2024-02-01T01:57:29.525Z,489.43
2024-02-01T01:57:40.564Z,489.39
2024-02-01T01:57:51.538Z,489.48
2024-02-01T01:58:02.613Z,489.47
2024-02-01T01:58:14.583Z,489.44
2024-02-01T01:58:25.564Z,489.45
2024-02-01T01:58:36.543Z,489.32
2024-02-01T01:58:47.529Z,489.39
2024-02-01T01:58:58.523Z,489.48
2024-02-01T01:59:09.663Z,489.42
2024-02-01T01:59:21.531Z,489.46
2024-02-01T01:59:32.541Z,489.42
2024-02-01T01:59:43.614Z,489.36
2024-02-01T01:59:54.625Z,489.39
2024-02-01T02:00:06.646Z,489.24
2024-02-01T02:00:18.604Z,489.31
2024-02-01T02:00:29.523Z,489.43
2024-02-01T02:00:40.604Z,489.45
2024-02-01T02:00:51.609Z,489.47
2024-02-01T02:01:03.614Z,489.47
2024-02-01T02:01:15.600Z,489.55
2024-02-01T02:01:27.703Z,489.58
2024-02-01T02:01:39.569Z,489.48
2024-02-01T02:01:50.551Z,489.44
2024-02-01T02:02:01.556Z,489.47
2024-02-01T02:02:13.605Z,489.52
2024-02-01T02:02:25.549Z,489.68
2024-02-01T02:02:36.603Z,489.67
2024-02-01T02:02:47.658Z,489.71
2024-02-01T02:03:00.697Z,489.76
2024-02-01T02:03:11.580Z,489.73
2024-02-01T02:03:22.694Z,489.80
2024-02-01T02:03:33.724Z,489.89
2024-02-01T02:03:44.562Z,489.88
2024-02-01T02:03:55.603Z,489.87
2024-02-01T02:04:07.604Z,489.85
2024-02-01T02:04:19.733Z,489.83
2024-02-01T02:04:30.597Z,489.84
2024-02-01T02:04:42.548Z,489.92
2024-02-01T02:04:53.539Z,489.85
2024-02-01T02:05:04.616Z,489.80
2024-02-01T02:05:16.600Z,489.71
2024-02-01T02:05:28.597Z,489.63
2024-02-01T02:05:40.669Z,489.66
2024-02-01T02:05:51.675Z,489.72
2024-02-01T02:06:03.618Z,489.69
2024-02-01T02:06:14.651Z,489.81
2024-02-01T02:06:26.786Z,489.95
2024-02-01T02:06:38.639Z,489.91
2024-02-01T02:06:50.571Z,489.94
2024-02-01T02:07:01.578Z,490.06
2024-02-01T02:07:13.546Z,489.98
2024-02-01T02:07:24.543Z,489.95
2024-02-01T02:07:35.560Z,490.03
2024-02-01T02:07:46.588Z,490.07
2024-02-01T02:07:57.574Z,489.96
2024-02-01T02:08:09.550Z,490.06
2024-02-01T02:08:20.522Z,490.03
2024-02-01T02:08:31.628Z,489.97
2024-02-01T02:08:43.610Z,489.72
2024-02-01T02:08:55.605Z,489.90
2024-02-01T02:09:07.578Z,490.07
2024-02-01T02:09:19.634Z,490.08
2024-02-01T02:09:30.547Z,490.11
2024-02-01T02:09:41.526Z,490.07
2024-02-01T02:09:52.627Z,490.14
2024-02-01T02:10:04.587Z,490.18
2024-02-01T02:10:15.659Z,490.29
2024-02-01T02:10:27.600Z,490.13
2024-02-01T02:10:39.574Z,490.32
2024-02-01T02:10:50.548Z,490.26
2024-02-01T02:11:01.547Z,490.32
2024-02-01T02:11:12.522Z,490.27
2024-02-01T02:11:23.601Z,490.26
2024-02-01T02:11:34.650Z,490.36
2024-02-01T02:11:45.605Z,490.43
2024-02-01T02:11:56.542Z,490.29
2024-02-01T02:12:07.564Z,490.30
2024-02-01T02:12:18.609Z,490.30
2024-02-01T02:12:30.593Z,490.22
2024-02-01T02:12:41.601Z,490.23
2024-02-01T02:12:53.548Z,490.34
2024-02-01T02:13:04.526Z,490.32
2024-02-01T02:13:15.604Z,490.44
2024-02-01T02:13:27.552Z,490.39
2024-02-01T02:13:38.576Z,490.50
2024-02-01T02:13:49.583Z,490.53
2024-02-01T02:14:00.620Z,490.57
2024-02-01T02:14:12.568Z,490.66
2024-02-01T02:14:24.585Z,490.80
2024-02-01T02:14:36.622Z,490.88
2024-02-01T02:14:48.609Z,490.84
2024-02-01T02:15:00.643Z,490.79
2024-02-01T02:15:11.639Z,490.68
2024-02-01T02:15:22.573Z,490.59
2024-02-01T02:15:33.536Z,490.54
2024-02-01T02:15:44.556Z,490.50
2024-02-01T02:15:55.637Z,490.50
2024-02-01T02:16:06.527Z,490.55
2024-02-01T02:16:17.635Z,490.41
2024-02-01T02:16:29.604Z,490.34
2024-02-01T02:16:40.624Z,490.36
2024-02-01T02:16:52.574Z,490.51
2024-02-01T02:17:03.618Z,490.49
2024-02-01T02:17:15.699Z,490.49
2024-02-01T02:17:26.572Z,490.51
2024-02-01T02:17:37.615Z,490.60
2024-02-01T02:17:49.686Z,490.66
2024-02-01T02:18:00.612Z,490.77
2024-02-01T02:18:12.429Z,490.72
2024-02-01T02:18:22.689Z,490.71
2024-02-01T02:18:33.724Z,490.61
2024-02-01T02:18:45.752Z,490.64
2024-02-01T02:18:56.675Z,490.75
2024-02-01T02:19:07.667Z,490.59
2024-02-01T02:19:18.779Z,490.61
2024-02-01T02:19:30.592Z,490.86
2024-02-01T02:19:42.711Z,490.83
2024-02-01T02:19:54.590Z,490.75
2024-02-01T02:20:06.572Z,490.69
2024-02-01T02:20:19.021Z,490.81
2024-02-01T02:20:29.521Z,490.91
2024-02-01T02:20:40.638Z,490.90
2024-02-01T02:20:52.579Z,491.01
2024-02-01T02:21:03.591Z,491.17
2024-02-01T02:21:15.646Z,490.89